Time;durP1;ratioP1;P1;durP2;ratioP2;P2;SDS_P1;SDS_P2;PMS_P1;PMS_P2;Temp;Humidity;BMP_temperature;BMP_pressure;BME280_temperature;BME280_humidity;BME280_pressure;Samples;Min_cycle;Max_cycle;Signal;HPM_P1;HPM_P2
2023/01/01 00:02:17;;;;;;;38.50;31.57;;;;;;;13.96;50.94;95972.81;6124776;23;20179;-83
2023/01/01 00:04:44;;;;;;;34.70;29.77;;;;;;;13.94;50.98;95991.13;6124730;23;20187;-82
2023/01/01 00:07:11;;;;;;;40.67;34.27;;;;;;;13.95;51.25;96008.25;6123514;23;20262;-81
2023/01/01 00:12:22;;;;;;;36.30;29.55;;;;;;;13.92;52.57;96016.41;6123751;23;20186;-81
2023/01/01 00:14:48;;;;;;;29.60;25.07;;;;;;;13.83;52.79;96020.13;6124270;23;20180;-82
2023/01/01 00:17:15;;;;;;;25.85;19.63;;;;;;;13.77;53.23;96019.06;6124358;23;20176;-82
2023/01/01 00:19:41;;;;;;;18.30;15.37;;;;;;;13.76;53.22;96021.81;6123692;23;20199;-81
2023/01/01 00:22:07;;;;;;;18.02;13.85;;;;;;;13.79;53.13;96024.84;6123971;23;20179;-82
2023/01/01 00:24:35;;;;;;;14.20;12.70;;;;;;;13.82;53.01;96021.09;6124091;23;20211;-82
2023/01/01 00:27:02;;;;;;;12.73;10.73;;;;;;;13.77;52.83;96028.59;6124332;23;20202;-82
2023/01/01 00:29:28;;;;;;;12.65;11.32;;;;;;;13.75;53.16;96023.63;6123121;23;20708;-83
2023/01/01 00:31:54;;;;;;;13.07;11.77;;;;;;;13.74;52.60;96034.94;6123997;23;20176;-81
2023/01/01 00:34:21;;;;;;;20.43;17.63;;;;;;;13.69;52.36;96029.53;6123733;23;20182;-81
2023/01/01 00:36:47;;;;;;;12.73;10.63;;;;;;;13.62;52.00;96039.03;6123102;23;20199;-82
2023/01/01 00:39:13;;;;;;;10.27;9.27;;;;;;;13.67;51.94;96036.66;6123344;23;20641;-82
2023/01/01 00:41:41;;;;;;;11.90;8.97;;;;;;;13.71;51.55;96035.31;6123760;23;20199;-83
2023/01/01 00:44:07;;;;;;;11.05;9.10;;;;;;;13.75;51.29;96033.16;6122809;23;20179;-82
2023/01/01 00:46:34;;;;;;;9.93;8.93;;;;;;;13.79;51.23;96026.63;6123009;23;20195;-82
2023/01/01 00:49:01;;;;;;;10.77;8.60;;;;;;;13.80;50.58;96028.25;6123065;23;20180;-83
2023/01/01 00:51:27;;;;;;;11.60;9.23;;;;;;;13.87;51.02;96034.25;6123064;23;20176;-82
2023/01/01 00:53:53;;;;;;;11.33;9.00;;;;;;;13.85;50.38;96040.63;6123720;23;20183;-82
2023/01/01 00:56:20;;;;;;;9.80;8.75;;;;;;;13.86;50.27;96040.44;6123993;23;20581;-82
2023/01/01 00:58:47;;;;;;;9.90;8.90;;;;;;;13.91;50.64;96052.81;6124117;23;20183;-83
2023/01/01 01:01:14;;;;;;;13.20;9.57;;;;;;;13.95;50.05;96039.31;6123634;23;20203;-83
2023/01/01 01:03:42;;;;;;;13.10;9.67;;;;;;;13.92;49.23;96042.28;6123930;23;20241;-82
2023/01/01 01:06:11;;;;;;;11.43;8.60;;;;;;;13.92;49.20;96031.13;6122485;23;20278;-82
2023/01/01 01:08:40;;;;;;;10.93;9.00;;;;;;;14.03;49.74;96036.63;6122775;23;20166;-83
2023/01/01 01:11:07;;;;;;;10.88;9.40;;;;;;;14.04;49.00;96040.81;6123110;23;20183;-82
2023/01/01 01:13:34;;;;;;;10.95;9.23;;;;;;;14.07;48.94;96037.81;6123220;23;20518;-82
2023/01/01 01:16:08;;;;;;;12.73;10.07;;;;;;;14.09;49.31;96043.63;6123016;23;20195;-83
2023/01/01 01:18:34;;;;;;;13.00;10.17;;;;;;;14.07;49.37;96049.97;6122793;23;20468;-81
2023/01/01 01:21:01;;;;;;;13.18;10.95;;;;;;;14.12;49.77;96056.19;6123178;23;20199;-83
2023/01/01 01:23:27;;;;;;;12.73;10.13;;;;;;;14.14;49.65;96049.06;6123824;23;20209;-83
2023/01/01 01:25:54;;;;;;;13.43;11.20;;;;;;;14.13;49.90;96059.59;6123464;23;20503;-81
2023/01/01 01:28:22;;;;;;;21.93;15.60;;;;;;;14.14;49.93;96059.41;6122823;23;20207;-83
2023/01/01 01:30:48;;;;;;;26.77;21.05;;;;;;;14.13;49.50;96057.81;6122773;23;20255;-82
2023/01/01 01:33:16;;;;;;;12.98;11.60;;;;;;;14.11;49.20;96062.38;6123398;23;20230;-81
2023/01/01 01:35:42;;;;;;;11.82;9.20;;;;;;;14.07;48.87;96066.31;6121907;23;20199;-83
2023/01/01 01:38:10;;;;;;;9.20;8.13;;;;;;;14.05;49.31;96059.72;6123576;23;20183;-82
2023/01/01 01:40:37;;;;;;;10.10;8.20;;;;;;;14.03;48.34;96069.47;6123260;23;20195;-82
2023/01/01 01:43:03;;;;;;;9.67;6.73;;;;;;;14.00;48.35;96065.47;6122720;23;20796;-81
2023/01/01 01:45:29;;;;;;;7.67;6.57;;;;;;;13.99;48.14;96063.88;6122623;23;20206;-82
2023/01/01 01:47:58;;;;;;;7.70;6.50;;;;;;;13.96;48.12;96061.63;6122008;23;20179;-83
2023/01/01 01:50:29;;;;;;;8.27;6.47;;;;;;;13.95;48.46;96062.63;6122928;23;20765;-82
2023/01/01 01:53:02;;;;;;;7.30;6.50;;;;;;;13.96;48.42;96055.66;6123317;23;20164;-82
2023/01/01 01:55:32;;;;;;;6.78;6.10;;;;;;;13.93;48.33;96053.44;6122105;23;20196;-81
2023/01/01 01:57:59;;;;;;;8.23;6.27;;;;;;;13.93;48.49;96053.44;6122654;23;20159;-83
2023/01/01 02:00:26;;;;;;;8.77;6.95;;;;;;;13.93;48.29;96049.06;6122895;23;20724;-82
2023/01/01 02:02:56;;;;;;;7.83;6.33;;;;;;;13.88;48.10;96055.78;6122420;23;20226;-83
2023/01/01 02:05:24;;;;;;;9.63;7.00;;;;;;;13.94;48.93;96057.63;6123189;23;20226;-82
2023/01/01 02:07:53;;;;;;;8.73;6.30;;;;;;;13.93;48.47;96049.06;6122569;23;20187;-83
2023/01/01 02:10:20;;;;;;;7.33;6.50;;;;;;;13.91;49.24;96052.81;6121798;23;20187;-82
2023/01/01 02:12:47;;;;;;;8.40;6.50;;;;;;;13.89;48.97;96058.19;6122215;23;20179;-82
2023/01/01 02:15:14;;;;;;;8.17;6.70;;;;;;;13.82;48.74;96062.50;6122903;23;20585;-83
2023/01/01 02:17:47;;;;;;;7.05;6.20;;;;;;;13.89;49.28;96050.41;6122256;23;20312;-82
2023/01/01 02:20:26;;;;;;;9.27;7.23;;;;;;;13.92;49.15;96052.63;6122879;23;20171;-83
2023/01/01 02:23:16;;;;;;;8.83;7.00;;;;;;;13.89;48.84;96044.44;6122470;23;20238;-82
2023/01/01 02:25:52;;;;;;;7.87;7.07;;;;;;;13.90;49.11;96046.03;6119875;23;20898;-83
2023/01/01 02:28:33;;;;;;;6.57;5.87;;;;;;;13.84;48.43;96045.00;6122338;23;20215;-81
2023/01/01 02:31:01;;;;;;;6.23;5.63;;;;;;;13.80;48.77;96041.19;6123167;23;20187;-82
2023/01/01 02:33:29;;;;;;;7.73;6.57;;;;;;;13.77;49.06;96046.72;6122539;23;20179;-82
2023/01/01 02:35:58;;;;;;;8.67;6.53;;;;;;;13.78;49.12;96045.75;6122206;23;20206;-83
2023/01/01 02:38:29;;;;;;;8.37;6.53;;;;;;;13.75;49.13;96033.97;6122796;23;20175;-81
2023/01/01 02:41:00;;;;;;;10.73;7.00;;;;;;;13.73;49.67;96025.59;6122595;23;20204;-83
2023/01/01 02:43:26;;;;;;;10.87;6.80;;;;;;;13.73;49.27;96030.75;6122826;23;20219;-83
2023/01/01 02:45:55;;;;;;;9.10;7.07;;;;;;;13.73;49.13;96029.97;6121279;23;20207;-82
2023/01/01 02:48:37;;;;;;;8.37;6.97;;;;;;;13.73;49.28;96032.53;6124449;23;20697;-83
2023/01/01 02:51:09;;;;;;;9.37;6.80;;;;;;;13.73;50.04;96035.13;6127023;23;20198;-82
2023/01/01 02:53:38;;;;;;;9.83;6.53;;;;;;;13.74;49.93;96034.16;6124765;23;20276;-82
2023/01/01 02:56:14;;;;;;;6.93;6.23;;;;;;;13.72;49.83;96030.94;6125039;23;20203;-83
2023/01/01 03:01:40;;;;;;;7.33;6.50;;;;;;;13.64;49.65;96031.88;6124843;23;20191;-82
2023/01/01 03:04:15;;;;;;;7.87;6.43;;;;;;;13.62;49.53;96038.22;6124319;23;20206;-83
2023/01/01 03:06:51;;;;;;;7.33;6.40;;;;;;;13.59;49.41;96041.97;6123810;23;20198;-82
2023/01/01 03:09:27;;;;;;;6.70;6.00;;;;;;;13.57;49.79;96045.72;6123823;23;20167;-83
2023/01/01 03:12:00;;;;;;;7.30;6.27;;;;;;;13.56;49.71;96044.94;6124509;23;20156;-82
2023/01/01 03:14:36;;;;;;;7.77;6.97;;;;;;;13.61;49.80;96046.97;6124474;23;20747;-83
2023/01/01 03:17:07;;;;;;;7.88;6.88;;;;;;;13.61;49.74;96046.97;6124241;23;20195;-82
2023/01/01 03:19:37;;;;;;;8.33;7.17;;;;;;;13.61;49.80;96049.56;6123471;23;20227;-83
2023/01/01 03:22:06;;;;;;;8.25;7.32;;;;;;;13.62;49.93;96049.38;6123903;23;20199;-83
2023/01/01 03:24:36;;;;;;;8.93;7.60;;;;;;;13.64;50.38;96052.59;6124621;23;20491;-82
2023/01/01 03:27:07;;;;;;;8.17;7.03;;;;;;;13.65;50.36;96053.38;6123766;23;20195;-81
2023/01/01 03:29:38;;;;;;;8.07;7.00;;;;;;;13.64;50.51;96050.00;6123920;23;20215;-83
2023/01/01 03:32:11;;;;;;;7.70;6.90;;;;;;;13.61;50.70;96054.72;6124495;23;20564;-83
2023/01/01 03:34:43;;;;;;;9.50;7.17;;;;;;;13.59;50.47;96062.69;6124367;23;20162;-83
2023/01/01 03:37:14;;;;;;;11.53;8.07;;;;;;;13.58;50.58;96062.84;6124197;23;20202;-82
2023/01/01 03:39:45;;;;;;;9.23;7.13;;;;;;;13.58;50.46;96065.44;6123633;23;20699;-82
2023/01/01 03:42:22;;;;;;;8.10;7.30;;;;;;;13.55;50.51;96074.38;6123842;23;20278;-83
2023/01/01 03:44:52;;;;;;;7.83;6.80;;;;;;;13.48;50.89;96076.88;6124096;23;20166;-83
2023/01/01 03:47:20;;;;;;;8.17;7.37;;;;;;;13.45;50.69;96081.63;6123035;23;20179;-82
2023/01/01 03:49:47;;;;;;;9.93;7.27;;;;;;;13.41;50.71;96078.59;6124133;23;20180;-82
2023/01/01 03:52:23;;;;;;;9.20;7.90;;;;;;;13.40;51.25;96084.75;6124328;23;20175;-83
2023/01/01 03:54:54;;;;;;;8.50;7.60;;;;;;;13.43;50.98;96086.97;6124682;23;20164;-82
2023/01/01 03:57:26;;;;;;;10.63;8.40;;;;;;;13.40;51.10;96084.75;6124148;23;20218;-81
2023/01/01 04:00:02;;;;;;;9.53;7.90;;;;;;;13.39;51.63;96084.94;6124097;23;20160;-83
2023/01/01 04:02:35;;;;;;;8.57;7.67;;;;;;;13.37;51.62;96090.28;6124391;23;20183;-83
2023/01/01 04:05:06;;;;;;;11.03;8.03;;;;;;;13.32;51.52;96084.84;6124264;23;20166;-82
2023/01/01 04:07:34;;;;;;;8.67;7.77;;;;;;;13.28;51.43;96093.94;6123361;23;20573;-82
2023/01/01 04:10:15;;;;;;;10.75;8.52;;;;;;;13.24;51.87;96092.72;6123631;23;20179;-82
2023/01/01 04:12:43;;;;;;;8.53;7.63;;;;;;;13.16;51.93;96082.47;6123643;23;20163;-83
2023/01/01 04:15:10;;;;;;;11.17;8.70;;;;;;;13.01;52.48;96072.09;6123300;23;20203;-83
2023/01/01 04:17:38;;;;;;;11.20;8.27;;;;;;;12.99;52.23;96074.06;6123722;23;20246;-82
2023/01/01 04:20:06;;;;;;;8.63;7.73;;;;;;;12.97;52.33;96073.44;6123935;23;20184;-82
2023/01/01 04:22:33;;;;;;;9.53;7.87;;;;;;;12.97;52.64;96076.03;6123546;23;20202;-81
2023/01/01 04:24:59;;;;;;;8.77;7.50;;;;;;;12.95;52.72;96069.44;6123241;23;20206;-82
2023/01/01 04:27:25;;;;;;;9.30;7.60;;;;;;;12.93;52.82;96069.59;6123992;23;20179;-83
2023/01/01 04:29:52;;;;;;;10.13;8.30;;;;;;;12.92;52.61;96064.63;6123000;23;20258;-83
2023/01/01 04:32:18;;;;;;;9.63;8.00;;;;;;;12.95;52.64;96079.78;6123808;23;20179;-82
2023/01/01 04:34:46;;;;;;;9.77;8.17;;;;;;;12.96;52.58;96076.22;6123462;23;20182;-83
2023/01/01 04:37:13;;;;;;;8.27;7.20;;;;;;;12.87;52.92;96077.28;6123822;23;20712;-82
2023/01/01 04:39:39;;;;;;;8.10;7.30;;;;;;;12.85;52.93;96081.84;6123204;23;20187;-82
2023/01/01 04:42:05;;;;;;;8.13;7.33;;;;;;;12.86;52.88;96078.28;6123633;23;20737;-81
2023/01/01 04:44:32;;;;;;;7.57;6.57;;;;;;;12.81;53.04;96073.63;6123685;23;20233;-83
2023/01/01 04:46:58;;;;;;;7.27;6.50;;;;;;;12.82;53.37;96083.00;6121609;23;20227;-83
2023/01/01 04:49:25;;;;;;;7.77;6.87;;;;;;;12.83;53.16;96084.59;6123668;23;20187;-83
2023/01/01 04:51:52;;;;;;;7.53;6.80;;;;;;;12.84;53.21;96088.78;6122945;23;20206;-82
2023/01/01 04:54:19;;;;;;;8.67;7.33;;;;;;;12.75;53.45;96082.09;6122819;23;20179;-83
2023/01/01 04:56:45;;;;;;;7.83;7.03;;;;;;;12.74;53.66;96083.06;6122733;23;20749;-82
2023/01/01 04:59:11;;;;;;;8.00;6.67;;;;;;;12.70;53.86;96090.34;6123523;23;20187;-82
2023/01/01 05:01:38;;;;;;;9.63;6.87;;;;;;;12.73;53.68;96090.00;6122692;23;20199;-83
2023/01/01 05:04:04;;;;;;;8.80;7.20;;;;;;;12.77;53.66;96088.69;6123373;23;20238;-83
2023/01/01 05:06:31;;;;;;;8.87;7.13;;;;;;;12.71;53.37;96086.00;6123388;23;20199;-82
2023/01/01 05:09:00;;;;;;;8.27;7.30;;;;;;;12.71;54.23;96097.13;6122967;23;20191;-83
2023/01/01 05:11:28;;;;;;;8.53;7.60;;;;;;;12.72;54.30;96106.50;6122878;23;20208;-82
2023/01/01 05:13:57;;;;;;;8.73;7.50;;;;;;;12.73;54.51;96091.78;6123308;23;20175;-82
2023/01/01 05:16:28;;;;;;;10.03;8.00;;;;;;;12.65;55.13;96104.81;6123543;23;20200;-83
2023/01/01 05:18:55;;;;;;;8.13;7.27;;;;;;;12.68;54.50;96105.25;6123219;23;20242;-83
2023/01/01 05:21:24;;;;;;;8.33;7.37;;;;;;;12.68;54.25;96104.47;6123726;23;20200;-83
2023/01/01 05:23:54;;;;;;;9.00;7.30;;;;;;;12.70;54.13;96102.50;6122831;23;20516;-81
2023/01/01 05:26:26;;;;;;;9.13;7.63;;;;;;;12.68;54.06;96102.69;6123435;23;20250;-83
2023/01/01 05:28:52;;;;;;;10.67;7.80;;;;;;;12.61;54.39;96106.13;6122511;23;20594;-83
2023/01/01 05:31:20;;;;;;;9.67;7.57;;;;;;;12.59;54.26;96114.06;6123736;23;20226;-83
2023/01/01 05:33:47;;;;;;;10.00;8.60;;;;;;;12.58;54.21;96115.03;6123071;23;20182;-83
2023/01/01 05:36:16;;;;;;;8.47;7.33;;;;;;;12.55;53.89;96110.22;6122389;23;20203;-82
2023/01/01 05:38:42;;;;;;;8.73;7.33;;;;;;;12.54;54.15;96100.06;6122326;23;20198;-82
2023/01/01 05:41:11;;;;;;;8.10;7.30;;;;;;;12.48;54.24;96098.19;6123009;23;20187;-83
2023/01/01 05:43:39;;;;;;;8.50;6.93;;;;;;;12.43;54.31;96111.63;6122378;23;20180;-83
2023/01/01 05:46:09;;;;;;;9.93;7.20;;;;;;;12.41;54.04;96111.00;6122617;23;20196;-82
2023/01/01 05:48:36;;;;;;;7.97;6.47;;;;;;;12.36;54.21;96105.53;6122277;23;20171;-82
2023/01/01 05:51:04;;;;;;;7.23;6.20;;;;;;;12.40;54.19;96105.03;6122382;23;20204;-84
2023/01/01 05:53:30;;;;;;;8.13;6.57;;;;;;;12.37;54.01;96114.88;6123413;23;20176;-83
2023/01/01 05:55:57;;;;;;;7.37;6.30;;;;;;;12.31;54.26;96126.75;6122965;23;20203;-82
2023/01/01 05:58:24;;;;;;;6.80;5.33;;;;;;;12.23;54.24;96131.94;6123120;23;20187;-82
2023/01/01 06:00:51;;;;;;;5.80;5.20;;;;;;;12.28;54.50;96134.03;6123556;23;20238;-83
2023/01/01 06:03:18;;;;;;;6.20;5.03;;;;;;;12.29;54.31;96131.28;6124845;23;20206;-83
2023/01/01 06:05:44;;;;;;;6.53;5.60;;;;;;;12.30;53.79;96132.88;6124667;23;20203;-83
2023/01/01 06:08:11;;;;;;;5.07;4.50;;;;;;;12.32;53.99;96143.00;6125061;23;20167;-82
2023/01/01 06:10:37;;;;;;;4.97;4.20;;;;;;;12.27;53.65;96138.38;6125457;23;20187;-82
2023/01/01 06:13:04;;;;;;;5.13;4.63;;;;;;;12.28;53.54;96139.19;6124500;23;20506;-83
2023/01/01 06:15:30;;;;;;;4.30;3.90;;;;;;;12.29;53.32;96145.97;6125033;23;20195;-83
2023/01/01 06:17:58;;;;;;;4.20;3.80;;;;;;;12.28;53.24;96145.16;6124834;23;20183;-83
2023/01/01 06:20:25;;;;;;;4.90;3.57;;;;;;;12.34;52.99;96147.03;6124256;23;20191;-83
2023/01/01 06:22:51;;;;;;;3.50;3.17;;;;;;;12.36;53.00;96150.25;6127092;23;20195;-83
2023/01/01 06:25:17;;;;;;;3.50;3.20;;;;;;;12.33;52.80;96139.44;6128522;23;20195;-83
2023/01/01 06:27:44;;;;;;;3.33;2.80;;;;;;;12.39;52.49;96147.31;6127461;23;20183;-83
2023/01/01 06:30:11;;;;;;;3.17;2.87;;;;;;;12.34;52.69;96141.88;6128323;23;20542;-83
2023/01/01 06:32:37;;;;;;;2.93;2.60;;;;;;;12.36;52.31;96145.06;6128852;23;20171;-83
2023/01/01 06:35:06;;;;;;;3.30;2.77;;;;;;;12.40;52.82;96148.94;6127848;23;20190;-83
2023/01/01 06:37:32;;;;;;;2.97;2.67;;;;;;;12.49;52.28;96148.88;6127752;23;20176;-83
2023/01/01 06:39:59;;;;;;;2.87;2.67;;;;;;;12.54;52.18;96155.09;6127497;23;20230;-84
2023/01/01 06:42:25;;;;;;;3.00;2.70;;;;;;;12.55;52.57;96159.28;6128501;23;20266;-83
2023/01/01 06:44:51;;;;;;;3.37;2.70;;;;;;;12.48;52.09;96149.84;6129161;23;20182;-83
2023/01/01 06:47:18;;;;;;;2.67;2.47;;;;;;;12.47;52.06;96150.81;6127873;23;20189;-83
2023/01/01 06:49:44;;;;;;;3.10;2.80;;;;;;;12.51;52.21;96157.25;6128834;23;20179;-84
2023/01/01 06:52:12;;;;;;;3.23;2.60;;;;;;;12.51;51.82;96170.94;6129372;23;20619;-84
2023/01/01 06:54:38;;;;;;;3.13;2.60;;;;;;;12.51;52.01;96170.94;6128317;23;20175;-84
2023/01/01 06:57:05;;;;;;;2.57;2.37;;;;;;;12.51;51.99;96181.28;6128268;23;20227;-84
2023/01/01 06:59:31;;;;;;;2.63;2.43;;;;;;;12.50;52.18;96178.88;6127357;23;20179;-83
2023/01/01 07:01:57;;;;;;;2.90;2.70;;;;;;;12.57;51.86;96162.50;6125802;23;20195;-84
2023/01/01 07:04:24;;;;;;;2.60;2.40;;;;;;;12.55;52.15;96163.66;6125502;23;20180;-82
2023/01/01 07:06:50;;;;;;;2.67;2.47;;;;;;;12.60;52.05;96171.69;6125435;23;20207;-83
2023/01/01 07:09:18;;;;;;;4.13;3.10;;;;;;;12.80;61.74;96186.53;6127053;23;20183;-82
2023/01/01 07:11:44;;;;;;;3.63;3.00;;;;;;;13.18;61.30;96186.53;6126213;23;20179;-84
2023/01/01 07:14:10;;;;;;;3.10;2.80;;;;;;;13.45;58.55;96191.09;6125727;23;20176;-83
2023/01/01 07:16:37;;;;;;;10.47;3.83;;;;;;;13.67;57.86;96185.94;6127505;23;20203;-82
2023/01/01 07:19:03;;;;;;;6.30;2.80;;;;;;;13.78;57.36;96191.47;6126861;23;20634;-85
2023/01/01 07:21:32;;;;;;;3.10;2.03;;;;;;;13.72;51.51;96196.56;6125146;23;20176;-84
2023/01/01 07:24:00;;;;;;;2.47;2.27;;;;;;;13.60;51.42;96198.81;6124956;23;20203;-83
2023/01/01 07:26:29;;;;;;;2.97;2.20;;;;;;;13.44;50.83;96206.78;6125508;23;20379;-83
2023/01/01 07:28:56;;;;;;;5.00;2.30;;;;;;;13.30;50.87;96205.78;6123320;23;20234;-83
2023/01/01 07:31:22;;;;;;;3.00;2.50;;;;;;;13.25;51.18;96208.13;6122720;23;20176;-84
2023/01/01 07:33:49;;;;;;;2.33;2.10;;;;;;;13.18;51.22;96207.22;6122882;23;20254;-83
2023/01/01 07:36:15;;;;;;;2.90;2.50;;;;;;;13.15;51.66;96202.38;6123035;23;20286;-83
2023/01/01 07:38:42;;;;;;;3.83;2.67;;;;;;;13.08;51.47;96201.47;6123592;23;20187;-84
2023/01/01 07:41:08;;;;;;;2.97;2.47;;;;;;;13.00;51.21;96210.09;6123714;23;20171;-83
2023/01/01 07:43:36;;;;;;;2.53;2.17;;;;;;;12.85;51.57;96216.22;6123130;23;20203;-83
2023/01/01 07:46:03;;;;;;;2.10;2.00;;;;;;;12.86;51.42;96210.06;6123732;23;20258;-84
2023/01/01 07:48:30;;;;;;;2.33;2.13;;;;;;;12.89;51.84;96210.53;6124823;23;20175;-83
2023/01/01 07:50:56;;;;;;;2.30;2.07;;;;;;;12.92;51.61;96215.31;6124138;23;20214;-83
2023/01/01 07:53:23;;;;;;;2.17;1.97;;;;;;;12.98;51.79;96221.59;6124535;23;20179;-83
2023/01/01 07:55:49;;;;;;;2.67;2.10;;;;;;;13.09;51.70;96224.53;6124319;23;20199;-84
2023/01/01 07:58:15;;;;;;;2.20;2.00;;;;;;;13.23;50.96;96229.97;6123766;23;20630;-84
2023/01/01 08:00:47;;;;;;;2.27;2.07;;;;;;;13.30;50.86;96228.25;6125361;23;20206;-83
2023/01/01 08:03:14;;;;;;;2.60;2.40;;;;;;;13.44;51.10;96237.81;6124912;23;20180;-84
2023/01/01 08:05:40;;;;;;;2.30;2.10;;;;;;;13.56;51.03;96238.97;6124547;23;20195;-83
2023/01/01 08:08:07;;;;;;;2.63;2.10;;;;;;;13.65;50.53;96229.34;6124464;23;20197;-84
2023/01/01 08:10:33;;;;;;;2.73;2.20;;;;;;;13.75;50.13;96222.91;6124595;23;20179;-83
2023/01/01 08:13:01;;;;;;;2.60;2.40;;;;;;;13.89;49.65;96225.63;6124470;23;20172;-82
2023/01/01 08:15:27;;;;;;;2.43;2.23;;;;;;;13.94;49.63;96225.91;6124645;23;20210;-84
2023/01/01 08:17:57;;;;;;;3.40;2.30;;;;;;;14.05;49.32;96240.97;6124425;23;20180;-84
2023/01/01 08:20:23;;;;;;;2.33;2.13;;;;;;;14.20;48.99;96238.38;6125336;23;20163;-84
2023/01/01 08:22:50;;;;;;;2.47;2.10;;;;;;;14.35;48.82;96228.75;6124301;23;20700;-83
2023/01/01 08:25:16;;;;;;;2.43;2.23;;;;;;;14.47;48.59;96232.47;6124448;23;20204;-83
2023/01/01 08:27:43;;;;;;;2.30;2.10;;;;;;;14.52;48.00;96225.78;6124009;23;20176;-82
2023/01/01 08:30:11;;;;;;;3.47;2.50;;;;;;;14.59;48.41;96223.25;6124431;23;20184;-81
2023/01/01 08:32:37;;;;;;;2.35;2.10;;;;;;;14.71;48.51;96221.75;6125184;23;20227;-81
2023/01/01 08:35:06;;;;;;;2.30;2.10;;;;;;;14.94;47.90;96224.13;6123725;23;20645;-82
2023/01/01 08:37:32;;;;;;;2.30;2.10;;;;;;;15.23;47.96;96237.91;6123934;23;20522;-81
2023/01/01 08:39:59;;;;;;;2.88;2.30;;;;;;;15.47;47.29;96229.69;6124925;23;20234;-82
2023/01/01 08:42:25;;;;;;;2.05;1.85;;;;;;;15.75;47.25;96235.66;6123639;23;20247;-82
2023/01/01 08:44:51;;;;;;;2.42;2.00;;;;;;;15.92;46.59;96243.13;6123514;23;20629;-82
2023/01/01 08:47:19;;;;;;;2.28;2.00;;;;;;;16.06;46.48;96242.19;6123306;23;20222;-81
2023/01/01 08:49:46;;;;;;;2.42;2.08;;;;;;;16.18;46.24;96244.03;6123527;23;20206;-82
2023/01/01 08:52:14;;;;;;;2.20;2.00;;;;;;;16.30;46.08;96244.28;6124150;23;20179;-82
2023/01/01 08:54:40;;;;;;;2.70;2.30;;;;;;;16.40;45.31;96243.88;6124054;23;20183;-81
2023/01/01 08:57:07;;;;;;;2.30;2.10;;;;;;;16.53;45.62;96249.13;6123100;23;20799;-82
2023/01/01 08:59:33;;;;;;;2.22;2.03;;;;;;;16.57;45.11;96242.53;6123824;23;20185;-81
2023/01/01 09:02:00;;;;;;;3.60;2.40;;;;;;;16.63;44.39;96246.13;6123570;23;20179;-82
2023/01/01 09:04:26;;;;;;;3.00;2.15;;;;;;;16.70;44.44;96257.38;6121838;23;20196;-81
2023/01/01 09:06:53;;;;;;;3.50;3.20;;;;;;;16.64;44.69;96253.78;6123034;23;20203;-81
2023/01/01 09:09:21;;;;;;;2.33;2.13;;;;;;;16.58;44.10;96251.91;6123288;23;20179;-83
2023/01/01 09:11:51;;;;;;;2.15;1.95;;;;;;;16.58;44.74;96264.91;6124372;23;20558;-82
2023/01/01 09:14:17;;;;;;;2.28;2.00;;;;;;;16.71;45.11;96267.59;6125591;23;20176;-83
2023/01/01 09:16:43;;;;;;;2.05;1.95;;;;;;;16.81;44.17;96260.19;6125561;23;20196;-82
2023/01/01 09:19:10;;;;;;;2.75;1.90;;;;;;;16.86;44.11;96268.22;6124777;23;20234;-83
2023/01/01 09:21:36;;;;;;;2.95;2.03;;;;;;;16.85;44.37;96264.00;6124521;23;20183;-82
2023/01/01 09:24:03;;;;;;;3.17;2.20;;;;;;;16.87;44.69;96277.63;6123870;23;20203;-82
2023/01/01 09:26:31;;;;;;;1.85;1.75;;;;;;;16.99;44.27;96274.41;6124278;23;20200;-82
2023/01/01 09:28:57;;;;;;;2.30;2.10;;;;;;;17.06;44.25;96283.84;6126278;23;20179;-84
2023/01/01 09:31:24;;;;;;;2.40;2.20;;;;;;;17.16;44.27;96276.41;6125392;23;20187;-81
2023/01/01 09:33:51;;;;;;;2.65;2.42;;;;;;;17.25;44.39;96277.03;6124076;23;20183;-81
2023/01/01 09:36:28;;;;;;;3.50;2.17;;;;;;;17.37;44.15;96283.22;6125145;23;20207;-84
2023/01/01 09:38:55;;;;;;;2.97;2.38;;;;;;;17.52;44.57;96272.59;6127455;23;20155;-83
2023/01/01 09:41:32;;;;;;;3.72;2.20;;;;;;;17.70;43.66;96275.41;6124023;23;20656;-84
2023/01/01 09:44:06;;;;;;;2.35;2.10;;;;;;;17.91;43.77;96276.94;6122898;23;20568;-84
2023/01/01 09:46:32;;;;;;;2.17;1.90;;;;;;;18.05;43.85;96275.91;6123691;23;20194;-83
2023/01/01 09:49:03;;;;;;;2.33;2.13;;;;;;;18.18;43.29;96270.63;6125532;23;20529;-84
2023/01/01 09:51:35;;;;;;;4.03;2.40;;;;;;;18.33;43.89;96264.34;6124157;23;20163;-83
2023/01/01 09:54:06;;;;;;;3.30;2.10;;;;;;;18.45;43.83;96266.09;6124795;23;20159;-82
2023/01/01 09:56:35;;;;;;;3.55;2.10;;;;;;;18.52;43.70;96260.84;6123477;23;20195;-82
2023/01/01 09:59:03;;;;;;;2.38;2.00;;;;;;;18.65;43.71;96265.22;6127484;23;20247;-83
2023/01/01 10:01:41;;;;;;;2.17;1.98;;;;;;;18.67;43.35;96255.34;6125036;23;20186;-82
2023/01/01 10:04:22;;;;;;;1.80;1.70;;;;;;;18.60;43.82;96255.41;6124303;23;20555;-83
2023/01/01 10:06:57;;;;;;;2.08;1.83;;;;;;;18.51;44.22;96256.63;6125171;23;20214;-82
2023/01/01 10:09:33;;;;;;;2.05;1.85;;;;;;;18.54;44.48;96253.59;6123847;23;20166;-83
2023/01/01 10:12:04;;;;;;;2.22;2.03;;;;;;;18.58;44.65;96244.38;6123814;23;20163;-82
2023/01/01 10:14:36;;;;;;;1.77;1.67;;;;;;;18.62;44.31;96242.97;6122864;23;20171;-82
2023/01/01 10:17:10;;;;;;;2.10;1.90;;;;;;;18.65;44.34;96247.78;6122984;23;20195;-81
2023/01/01 10:19:41;;;;;;;1.85;1.75;;;;;;;18.78;44.77;96255.50;6123182;23;20159;-80
2023/01/01 10:22:11;;;;;;;3.90;1.92;;;;;;;18.90;44.17;96251.19;6122689;23;20175;-81
2023/01/01 10:24:45;;;;;;;1.70;1.60;;;;;;;18.90;43.90;96247.78;6122903;23;20191;-81
2023/01/01 10:27:26;;;;;;;2.17;1.75;;;;;;;18.90;44.03;96239.94;6122243;23;20196;-82
2023/01/01 10:29:54;;;;;;;1.70;1.58;;;;;;;18.84;43.41;96240.81;6122945;23;20613;-82
2023/01/01 10:32:26;;;;;;;1.70;1.60;;;;;;;18.86;43.25;96238.78;6123264;23;20176;-82
2023/01/01 10:34:53;;;;;;;2.33;1.92;;;;;;;18.89;43.37;96231.31;6123189;23;20215;-82
2023/01/01 10:37:20;;;;;;;1.63;1.52;;;;;;;18.85;42.57;96229.38;6123171;23;20251;-82
2023/01/01 10:39:48;;;;;;;1.85;1.73;;;;;;;18.90;42.56;96235.53;6123631;23;20180;-82
2023/01/01 10:42:15;;;;;;;3.17;2.88;;;;;;;18.97;42.78;96231.06;6122721;23;20669;-81
2023/01/01 10:44:42;;;;;;;1.90;1.67;;;;;;;19.02;42.03;96224.41;6123118;23;20196;-81
2023/01/01 10:47:27;;;;;;;2.13;1.83;;;;;;;19.04;41.24;96225.00;6122079;23;20218;-82
2023/01/01 10:49:55;;;;;;;1.83;1.70;;;;;;;19.08;41.47;96218.31;6123808;23;20833;-82
2023/01/01 10:52:30;;;;;;;3.45;2.47;;;;;;;19.10;41.25;96224.13;6123100;23;20208;-82
2023/01/01 10:54:57;;;;;;;2.58;1.92;;;;;;;19.09;41.15;96225.16;6123717;23;20162;-82
2023/01/01 10:57:31;;;;;;;2.40;2.20;;;;;;;19.10;40.79;96224.13;6122675;23;20195;-83
2023/01/01 11:00:12;;;;;;;2.40;2.20;;;;;;;19.16;40.95;96216.25;6122822;23;20183;-82
2023/01/01 11:02:39;;;;;;;3.55;2.00;;;;;;;19.27;41.18;96214.75;6123336;23;20218;-81
2023/01/01 11:05:15;;;;;;;1.90;1.80;;;;;;;19.31;40.67;96218.53;6122869;23;20573;-83
2023/01/01 11:07:43;;;;;;;2.65;2.30;;;;;;;19.36;40.66;96217.88;6123368;23;20191;-82
2023/01/01 11:10:17;;;;;;;2.22;2.08;;;;;;;19.39;41.00;96212.25;6124435;23;20175;-81
2023/01/01 11:12:44;;;;;;;2.78;2.10;;;;;;;19.43;41.04;96213.41;6124894;23;20250;-82
2023/01/01 11:15:22;;;;;;;2.00;1.80;;;;;;;19.26;40.80;96210.53;6125524;23;20186;-81
2023/01/01 11:17:50;;;;;;;1.38;1.27;;;;;;;19.12;41.25;96206.44;6124155;23;20170;-82
2023/01/01 11:20:19;;;;;;;2.97;1.55;;;;;;;19.08;41.50;96206.06;6123768;23;20175;-80
2023/01/01 11:22:50;;;;;;;1.92;1.63;;;;;;;19.21;41.46;96200.75;6124702;23;20191;-82
2023/01/01 11:25:20;;;;;;;1.77;1.40;;;;;;;19.15;41.63;96196.38;6125100;23;20156;-80
2023/01/01 11:27:47;;;;;;;1.40;1.30;;;;;;;19.16;41.56;96181.53;6124920;23;20164;-82
2023/01/01 11:30:21;;;;;;;1.50;1.33;;;;;;;19.06;41.53;96179.38;6124062;23;20211;-82
2023/01/01 11:32:49;;;;;;;1.55;1.45;;;;;;;19.02;41.53;96180.84;6123026;23;20164;-82
2023/01/01 11:35:22;;;;;;;1.67;1.42;;;;;;;19.10;41.50;96177.16;6123732;23;20183;-82
2023/01/01 11:37:51;;;;;;;2.00;1.55;;;;;;;19.23;41.57;96177.84;6123540;23;20166;-82
2023/01/01 11:40:20;;;;;;;2.33;1.48;;;;;;;19.31;41.66;96174.94;6126252;23;20183;-81
2023/01/01 11:42:49;;;;;;;1.85;1.60;;;;;;;19.33;41.63;96164.28;6125139;23;20175;-82
2023/01/01 11:45:20;;;;;;;1.40;1.30;;;;;;;19.42;41.19;96167.41;6124866;23;20207;-81